sensor_id;sensor_type;location;lat;lon;timestamp;pressure;altitude;pressure_sealevel;temperature;humidity
45763;BME280;37512;52.408;13.356;2023-06-26T00:00:56;101078.69;;;19.58;100.00
45763;BME280;37512;52.408;13.356;2023-06-26T00:04:58;101077.59;;;19.49;100.00
45763;BME280;37512;52.408;13.356;2023-06-26T00:09:00;101079.19;;;19.50;100.00
45763;BME280;37512;52.408;13.356;2023-06-26T00:13:02;101083.31;;;19.41;100.00
45763;BME280;37512;52.408;13.356;2023-06-26T00:17:05;101072.13;;;19.34;100.00
45763;BME280;37512;52.408;13.356;2023-06-26T00:21:06;101072.16;;;19.27;100.00
45763;BME280;37512;52.408;13.356;2023-06-26T00:25:11;101066.97;;;19.26;100.00
45763;BME280;37512;52.408;13.356;2023-06-26T00:29:16;101072.63;;;19.22;100.00
45763;BME280;37512;52.408;13.356;2023-06-26T00:33:18;101070.25;;;19.20;100.00
45763;BME280;37512;52.408;13.356;2023-06-26T00:37:19;101077.56;;;19.11;100.00
45763;BME280;37512;52.408;13.356;2023-06-26T00:41:22;101069.53;;;19.09;100.00
45763;BME280;37512;52.408;13.356;2023-06-26T00:45:24;101065.97;;;19.05;100.00
45763;BME280;37512;52.408;13.356;2023-06-26T00:49:42;101061.56;;;19.00;100.00
45763;BME280;37512;52.408;13.356;2023-06-26T00:53:43;101061.19;;;18.98;100.00
45763;BME280;37512;52.408;13.356;2023-06-26T00:57:48;101062.03;;;18.92;100.00
45763;BME280;37512;52.408;13.356;2023-06-26T01:01:50;101056.44;;;18.88;100.00
45763;BME280;37512;52.408;13.356;2023-06-26T01:05:52;101054.88;;;18.84;100.00
45763;BME280;37512;52.408;13.356;2023-06-26T01:09:55;101042.88;;;18.79;100.00
45763;BME280;37512;52.408;13.356;2023-06-26T01:14:00;101043.28;;;18.78;100.00
45763;BME280;37512;52.408;13.356;2023-06-26T01:18:03;101042.06;;;18.75;100.00
45763;BME280;37512;52.408;13.356;2023-06-26T01:26:29;101041.75;;;18.66;100.00
45763;BME280;37512;52.408;13.356;2023-06-26T01:30:32;101033.78;;;18.54;100.00
45763;BME280;37512;52.408;13.356;2023-06-26T01:34:35;101027.69;;;18.66;100.00
45763;BME280;37512;52.408;13.356;2023-06-26T01:38:40;101018.47;;;18.62;100.00
45763;BME280;37512;52.408;13.356;2023-06-26T01:42:42;101018.88;;;18.60;100.00
45763;BME280;37512;52.408;13.356;2023-06-26T01:50:52;101014.09;;;18.57;100.00
45763;BME280;37512;52.408;13.356;2023-06-26T01:58:59;101017.41;;;18.38;100.00
45763;BME280;37512;52.408;13.356;2023-06-26T02:03:01;101023.97;;;18.21;100.00
45763;BME280;37512;52.408;13.356;2023-06-26T02:07:03;101016.69;;;18.27;100.00
45763;BME280;37512;52.408;13.356;2023-06-26T02:11:05;101016.31;;;18.25;100.00
45763;BME280;37512;52.408;13.356;2023-06-26T02:15:07;101017.56;;;18.16;100.00
45763;BME280;37512;52.408;13.356;2023-06-26T02:19:09;101015.94;;;18.19;100.00
45763;BME280;37512;52.408;13.356;2023-06-26T02:23:10;101012.75;;;18.17;100.00
45763;BME280;37512;52.408;13.356;2023-06-26T02:27:12;101011.50;;;18.22;100.00
45763;BME280;37512;52.408;13.356;2023-06-26T02:31:14;101011.44;;;18.36;100.00
45763;BME280;37512;52.408;13.356;2023-06-26T02:35:15;101019.94;;;18.25;100.00
45763;BME280;37512;52.408;13.356;2023-06-26T02:39:17;101007.81;;;18.39;100.00
45763;BME280;37512;52.408;13.356;2023-06-26T02:43:18;101013.38;;;18.43;100.00
45763;BME280;37512;52.408;13.356;2023-06-26T02:47:20;101011.38;;;18.43;100.00
45763;BME280;37512;52.408;13.356;2023-06-26T02:51:21;101008.53;;;18.50;100.00
45763;BME280;37512;52.408;13.356;2023-06-26T02:55:23;101001.28;;;18.49;100.00
45763;BME280;37512;52.408;13.356;2023-06-26T02:59:25;101003.72;;;18.47;100.00
45763;BME280;37512;52.408;13.356;2023-06-26T03:03:27;100999.88;;;18.19;100.00
45763;BME280;37512;52.408;13.356;2023-06-26T03:07:29;100997.13;;;18.12;100.00
45763;BME280;37512;52.408;13.356;2023-06-26T03:11:31;100995.53;;;18.08;100.00
45763;BME280;37512;52.408;13.356;2023-06-26T03:15:33;100984.19;;;18.29;100.00
45763;BME280;37512;52.408;13.356;2023-06-26T03:19:34;100986.28;;;18.14;100.00
45763;BME280;37512;52.408;13.356;2023-06-26T03:23:36;100987.78;;;18.30;100.00
45763;BME280;37512;52.408;13.356;2023-06-26T03:27:37;100987.78;;;18.30;100.00
45763;BME280;37512;52.408;13.356;2023-06-26T03:31:39;100980.47;;;18.43;100.00
45763;BME280;37512;52.408;13.356;2023-06-26T03:35:41;100980.91;;;18.38;100.00
45763;BME280;37512;52.408;13.356;2023-06-26T03:39:42;100981.59;;;18.53;100.00
45763;BME280;37512;52.408;13.356;2023-06-26T03:43:44;100973.78;;;18.78;100.00
45763;BME280;37512;52.408;13.356;2023-06-26T03:47:46;100980.88;;;18.94;100.00
45763;BME280;37512;52.408;13.356;2023-06-26T03:51:51;100967.34;;;18.74;100.00
45763;BME280;37512;52.408;13.356;2023-06-26T03:55:52;100975.88;;;19.12;100.00
45763;BME280;37512;52.408;13.356;2023-06-26T03:59:54;100977.34;;;19.24;100.00
45763;BME280;37512;52.408;13.356;2023-06-26T04:03:55;100977.94;;;19.42;100.00
45763;BME280;37512;52.408;13.356;2023-06-26T04:07:57;100974.53;;;19.24;100.00
45763;BME280;37512;52.408;13.356;2023-06-26T04:12:05;100973.88;;;19.47;100.00
45763;BME280;37512;52.408;13.356;2023-06-26T04:16:13;100977.84;;;19.50;100.00
45763;BME280;37512;52.408;13.356;2023-06-26T04:20:14;100966.84;;;19.62;100.00
45763;BME280;37512;52.408;13.356;2023-06-26T04:24:16;100965.31;;;19.89;100.00
45763;BME280;37512;52.408;13.356;2023-06-26T04:28:28;100954.13;;;19.85;100.00
45763;BME280;37512;52.408;13.356;2023-06-26T04:32:30;100965.38;;;19.85;100.00
45763;BME280;37512;52.408;13.356;2023-06-26T04:36:34;100965.13;;;20.03;100.00
45763;BME280;37512;52.408;13.356;2023-06-26T04:40:44;100963.06;;;20.07;100.00
45763;BME280;37512;52.408;13.356;2023-06-26T04:44:46;100958.78;;;19.95;100.00
45763;BME280;37512;52.408;13.356;2023-06-26T04:48:53;100954.63;;;20.07;100.00
45763;BME280;37512;52.408;13.356;2023-06-26T04:52:56;100948.00;;;20.17;100.00
45763;BME280;37512;52.408;13.356;2023-06-26T04:56:57;100950.03;;;20.44;100.00
45763;BME280;37512;52.408;13.356;2023-06-26T05:01:00;100952.88;;;20.40;100.00
45763;BME280;37512;52.408;13.356;2023-06-26T05:05:04;100949.00;;;20.58;100.00
45763;BME280;37512;52.408;13.356;2023-06-26T05:09:05;100951.09;;;20.50;100.00
45763;BME280;37512;52.408;13.356;2023-06-26T05:13:07;100954.66;;;20.58;100.00
45763;BME280;37512;52.408;13.356;2023-06-26T05:17:08;100953.00;;;20.60;100.00
45763;BME280;37512;52.408;13.356;2023-06-26T05:21:10;100953.03;;;20.57;100.00
45763;BME280;37512;52.408;13.356;2023-06-26T05:25:13;100952.03;;;20.43;100.00
45763;BME280;37512;52.408;13.356;2023-06-26T05:29:14;100938.41;;;20.65;100.00
45763;BME280;37512;52.408;13.356;2023-06-26T05:33:18;100939.13;;;20.46;100.00
45763;BME280;37512;52.408;13.356;2023-06-26T05:37:21;100934.81;;;20.38;100.00
45763;BME280;37512;52.408;13.356;2023-06-26T05:41:23;100932.50;;;20.56;100.00
45763;BME280;37512;52.408;13.356;2023-06-26T05:45:25;100924.66;;;20.67;100.00
45763;BME280;37512;52.408;13.356;2023-06-26T05:49:26;100921.47;;;20.65;100.00
45763;BME280;37512;52.408;13.356;2023-06-26T05:53:28;100922.13;;;20.73;100.00
45763;BME280;37512;52.408;13.356;2023-06-26T05:57:31;100919.13;;;20.84;100.00
45763;BME280;37512;52.408;13.356;2023-06-26T06:01:33;100922.25;;;21.09;100.00
45763;BME280;37512;52.408;13.356;2023-06-26T06:05:35;100919.03;;;21.11;100.00
45763;BME280;37512;52.408;13.356;2023-06-26T06:09:40;100907.53;;;21.22;100.00
45763;BME280;37512;52.408;13.356;2023-06-26T06:13:41;100902.53;;;21.29;100.00
45763;BME280;37512;52.408;13.356;2023-06-26T06:17:44;100906.09;;;21.54;100.00
45763;BME280;37512;52.408;13.356;2023-06-26T06:21:45;100902.41;;;21.73;100.00
45763;BME280;37512;52.408;13.356;2023-06-26T06:25:47;100897.84;;;21.79;100.00
45763;BME280;37512;52.408;13.356;2023-06-26T06:29:51;100903.28;;;21.90;100.00
45763;BME280;37512;52.408;13.356;2023-06-26T06:33:53;100901.78;;;22.02;100.00
45763;BME280;37512;52.408;13.356;2023-06-26T06:37:54;100903.13;;;22.30;100.00
45763;BME280;37512;52.408;13.356;2023-06-26T06:41:56;100898.78;;;22.42;100.00
45763;BME280;37512;52.408;13.356;2023-06-26T06:45:57;100898.63;;;22.32;100.00
45763;BME280;37512;52.408;13.356;2023-06-26T06:50:00;100901.78;;;22.51;100.00
45763;BME280;37512;52.408;13.356;2023-06-26T06:54:09;100895.16;;;22.58;100.00
45763;BME280;37512;52.408;13.356;2023-06-26T06:58:10;100889.19;;;22.85;100.00
45763;BME280;37512;52.408;13.356;2023-06-26T07:02:12;100893.75;;;23.11;100.00
45763;BME280;37512;52.408;13.356;2023-06-26T07:06:13;100894.44;;;23.15;100.00
45763;BME280;37512;52.408;13.356;2023-06-26T07:10:15;100895.47;;;23.22;100.00
45763;BME280;37512;52.408;13.356;2023-06-26T07:14:16;100890.53;;;23.38;100.00
45763;BME280;37512;52.408;13.356;2023-06-26T07:18:18;100890.97;;;23.79;100.00
45763;BME280;37512;52.408;13.356;2023-06-26T07:22:19;100891.28;;;23.81;100.00
45763;BME280;37512;52.408;13.356;2023-06-26T07:26:22;100885.97;;;24.09;100.00
45763;BME280;37512;52.408;13.356;2023-06-26T07:30:43;100887.78;;;24.15;100.00
45763;BME280;37512;52.408;13.356;2023-06-26T07:34:45;100878.44;;;24.28;100.00
45763;BME280;37512;52.408;13.356;2023-06-26T07:38:46;100870.91;;;24.59;99.04
45763;BME280;37512;52.408;13.356;2023-06-26T07:42:48;100868.66;;;24.41;92.25
45763;BME280;37512;52.408;13.356;2023-06-26T07:46:50;100864.34;;;24.84;91.67
45763;BME280;37512;52.408;13.356;2023-06-26T07:50:52;100859.97;;;24.93;93.45
45763;BME280;37512;52.408;13.356;2023-06-26T07:54:56;100866.41;;;24.84;90.58
45763;BME280;37512;52.408;13.356;2023-06-26T07:58:58;100857.75;;;24.88;89.91
45763;BME280;37512;52.408;13.356;2023-06-26T08:03:01;100858.16;;;25.21;85.86
45763;BME280;37512;52.408;13.356;2023-06-26T08:07:03;100853.13;;;25.03;88.68
45763;BME280;37512;52.408;13.356;2023-06-26T08:11:05;100849.38;;;25.28;92.28
45763;BME280;37512;52.408;13.356;2023-06-26T08:15:07;100844.81;;;25.62;84.74
45763;BME280;37512;52.408;13.356;2023-06-26T08:19:09;100843.09;;;25.64;81.99
45763;BME280;37512;52.408;13.356;2023-06-26T08:23:10;100836.75;;;25.60;76.38
45763;BME280;37512;52.408;13.356;2023-06-26T08:27:12;100840.38;;;25.92;75.95
45763;BME280;37512;52.408;13.356;2023-06-26T08:31:13;100844.16;;;25.89;74.46
45763;BME280;37512;52.408;13.356;2023-06-26T08:35:15;100843.25;;;26.01;76.29
45763;BME280;37512;52.408;13.356;2023-06-26T08:39:17;100827.47;;;26.10;70.24
45763;BME280;37512;52.408;13.356;2023-06-26T08:43:20;100829.72;;;26.24;67.45
45763;BME280;37512;52.408;13.356;2023-06-26T08:47:24;100828.44;;;26.34;68.19
45763;BME280;37512;52.408;13.356;2023-06-26T08:51:28;100825.47;;;26.47;66.29
45763;BME280;37512;52.408;13.356;2023-06-26T08:55:31;100832.13;;;26.81;60.86
45763;BME280;37512;52.408;13.356;2023-06-26T08:59:37;100825.34;;;26.78;61.39
45763;BME280;37512;52.408;13.356;2023-06-26T09:03:39;100822.78;;;26.99;66.21
45763;BME280;37512;52.408;13.356;2023-06-26T09:07:43;100805.72;;;26.89;57.95
45763;BME280;37512;52.408;13.356;2023-06-26T09:11:44;100806.66;;;26.77;57.73
45763;BME280;37512;52.408;13.356;2023-06-26T09:15:46;100805.81;;;27.13;56.93
45763;BME280;37512;52.408;13.356;2023-06-26T09:19:48;100807.50;;;27.39;61.07
45763;BME280;37512;52.408;13.356;2023-06-26T09:23:52;100800.78;;;27.60;56.19
45763;BME280;37512;52.408;13.356;2023-06-26T09:27:56;100805.59;;;27.45;58.50
45763;BME280;37512;52.408;13.356;2023-06-26T09:31:59;100798.94;;;27.81;56.70
45763;BME280;37512;52.408;13.356;2023-06-26T09:36:01;100801.47;;;27.79;54.58
45763;BME280;37512;52.408;13.356;2023-06-26T09:40:03;100795.28;;;27.90;51.30
45763;BME280;37512;52.408;13.356;2023-06-26T09:44:06;100787.69;;;27.78;51.70
45763;BME280;37512;52.408;13.356;2023-06-26T09:48:09;100782.75;;;28.11;51.80
45763;BME280;37512;52.408;13.356;2023-06-26T09:52:15;100785.34;;;27.76;53.50
45763;BME280;37512;52.408;13.356;2023-06-26T09:56:17;100775.22;;;28.47;52.53
45763;BME280;37512;52.408;13.356;2023-06-26T10:00:19;100763.56;;;28.12;53.87
45763;BME280;37512;52.408;13.356;2023-06-26T10:04:21;100771.09;;;28.48;51.74
45763;BME280;37512;52.408;13.356;2023-06-26T10:08:23;100759.31;;;28.07;51.25
45763;BME280;37512;52.408;13.356;2023-06-26T10:12:31;100766.59;;;28.56;50.01
45763;BME280;37512;52.408;13.356;2023-06-26T10:16:35;100758.72;;;28.51;46.35
45763;BME280;37512;52.408;13.356;2023-06-26T10:20:42;100752.53;;;28.68;45.98
45763;BME280;37512;52.408;13.356;2023-06-26T10:24:49;100745.31;;;28.87;46.91
45763;BME280;37512;52.408;13.356;2023-06-26T10:28:53;100734.09;;;28.98;46.12
45763;BME280;37512;52.408;13.356;2023-06-26T10:32:56;100726.50;;;29.40;45.80
45763;BME280;37512;52.408;13.356;2023-06-26T10:37:01;100730.38;;;29.22;46.43
45763;BME280;37512;52.408;13.356;2023-06-26T10:41:10;100724.25;;;29.29;46.48
45763;BME280;37512;52.408;13.356;2023-06-26T10:45:15;100732.03;;;29.64;47.35
45763;BME280;37512;52.408;13.356;2023-06-26T10:49:17;100708.25;;;29.93;48.56
45763;BME280;37512;52.408;13.356;2023-06-26T10:57:25;100701.06;;;30.71;44.21
45763;BME280;37512;52.408;13.356;2023-06-26T11:01:27;100705.53;;;31.03;42.69
45763;BME280;37512;52.408;13.356;2023-06-26T11:05:36;100700.38;;;30.55;43.91
45763;BME280;37512;52.408;13.356;2023-06-26T11:09:53;100702.28;;;30.38;43.03
45763;BME280;37512;52.408;13.356;2023-06-26T11:13:55;100693.06;;;30.80;42.94
45763;BME280;37512;52.408;13.356;2023-06-26T11:17:57;100693.53;;;31.37;40.27
45763;BME280;37512;52.408;13.356;2023-06-26T11:22:02;100693.41;;;31.20;41.81
45763;BME280;37512;52.408;13.356;2023-06-26T11:26:20;100676.16;;;31.52;43.64
45763;BME280;37512;52.408;13.356;2023-06-26T11:30:26;100680.78;;;31.86;39.15
45763;BME280;37512;52.408;13.356;2023-06-26T11:34:30;100675.97;;;31.66;39.33
45763;BME280;37512;52.408;13.356;2023-06-26T11:38:37;100665.94;;;31.94;40.02
45763;BME280;37512;52.408;13.356;2023-06-26T11:42:39;100664.56;;;31.83;39.46
45763;BME280;37512;52.408;13.356;2023-06-26T11:46:40;100655.31;;;31.51;39.49
45763;BME280;37512;52.408;13.356;2023-06-26T11:50:42;100640.81;;;31.77;38.78
45763;BME280;37512;52.408;13.356;2023-06-26T11:54:47;100638.34;;;31.48;39.24
45763;BME280;37512;52.408;13.356;2023-06-26T11:59:05;100633.81;;;31.95;40.81
45763;BME280;37512;52.408;13.356;2023-06-26T12:03:09;100622.88;;;31.94;41.71
45763;BME280;37512;52.408;13.356;2023-06-26T12:07:11;100612.66;;;31.81;39.41
45763;BME280;37512;52.408;13.356;2023-06-26T12:11:14;100604.75;;;30.79;40.61
45763;BME280;37512;52.408;13.356;2023-06-26T12:15:16;100601.41;;;30.49;43.24
45763;BME280;37512;52.408;13.356;2023-06-26T12:19:24;100589.78;;;30.06;42.60
45763;BME280;37512;52.408;13.356;2023-06-26T12:23:39;100595.50;;;30.58;42.75
45763;BME280;37512;52.408;13.356;2023-06-26T12:27:40;100593.06;;;31.20;41.41
45763;BME280;37512;52.408;13.356;2023-06-26T12:31:48;100585.56;;;31.94;42.14
45763;BME280;37512;52.408;13.356;2023-06-26T12:35:50;100580.69;;;32.45;41.51
45763;BME280;37512;52.408;13.356;2023-06-26T12:39:56;100581.94;;;31.99;39.84
45763;BME280;37512;52.408;13.356;2023-06-26T12:43:59;100572.69;;;31.55;38.68
45763;BME280;37512;52.408;13.356;2023-06-26T12:48:08;100572.88;;;32.74;37.56
45763;BME280;37512;52.408;13.356;2023-06-26T12:52:12;100572.84;;;32.34;39.35
45763;BME280;37512;52.408;13.356;2023-06-26T12:56:13;100568.31;;;31.82;40.29
45763;BME280;37512;52.408;13.356;2023-06-26T13:00:17;100547.09;;;31.46;42.82
45763;BME280;37512;52.408;13.356;2023-06-26T13:04:19;100539.13;;;31.89;40.87
45763;BME280;37512;52.408;13.356;2023-06-26T13:08:21;100538.59;;;31.85;40.46
45763;BME280;37512;52.408;13.356;2023-06-26T13:12:22;100526.91;;;31.29;39.71
45763;BME280;37512;52.408;13.356;2023-06-26T13:16:24;100528.09;;;31.60;38.93
45763;BME280;37512;52.408;13.356;2023-06-26T13:20:25;100505.22;;;30.31;41.26
45763;BME280;37512;52.408;13.356;2023-06-26T13:24:27;100502.75;;;30.87;40.89
45763;BME280;37512;52.408;13.356;2023-06-26T13:28:28;100491.09;;;31.62;41.68
45763;BME280;37512;52.408;13.356;2023-06-26T13:32:30;100479.16;;;32.25;38.72
45763;BME280;37512;52.408;13.356;2023-06-26T13:36:32;100451.22;;;32.15;38.28
45763;BME280;37512;52.408;13.356;2023-06-26T13:40:36;100441.31;;;32.10;40.62
45763;BME280;37512;52.408;13.356;2023-06-26T13:44:38;100438.44;;;32.33;39.54
45763;BME280;37512;52.408;13.356;2023-06-26T13:49:00;100432.97;;;33.04;37.87
45763;BME280;37512;52.408;13.356;2023-06-26T13:53:01;100409.94;;;32.46;38.20
45763;BME280;37512;52.408;13.356;2023-06-26T13:57:03;100397.16;;;31.34;37.88
45763;BME280;37512;52.408;13.356;2023-06-26T14:01:07;100383.09;;;32.26;39.50
45763;BME280;37512;52.408;13.356;2023-06-26T14:05:08;100389.13;;;31.44;40.17
45763;BME280;37512;52.408;13.356;2023-06-26T14:09:10;100365.34;;;30.55;41.19
45763;BME280;37512;52.408;13.356;2023-06-26T14:13:11;100382.31;;;29.84;42.68
45763;BME280;37512;52.408;13.356;2023-06-26T14:17:16;100437.06;;;29.71;42.40
45763;BME280;37512;52.408;13.356;2023-06-26T14:21:17;100463.31;;;29.23;45.63
45763;BME280;37512;52.408;13.356;2023-06-26T14:25:19;100556.75;;;27.39;62.63
45763;BME280;37512;52.408;13.356;2023-06-26T14:29:21;100539.13;;;25.79;87.48
45763;BME280;37512;52.408;13.356;2023-06-26T14:33:23;100604.00;;;23.53;100.00
45763;BME280;37512;52.408;13.356;2023-06-26T14:37:29;100657.50;;;22.74;100.00
45763;BME280;37512;52.408;13.356;2023-06-26T14:41:31;100650.50;;;21.78;100.00
45763;BME280;37512;52.408;13.356;2023-06-26T14:45:33;100672.59;;;21.50;100.00
45763;BME280;37512;52.408;13.356;2023-06-26T14:49:35;100647.81;;;21.58;100.00
45763;BME280;37512;52.408;13.356;2023-06-26T14:53:47;100641.84;;;21.69;100.00
45763;BME280;37512;52.408;13.356;2023-06-26T14:57:49;100642.16;;;21.58;100.00
45763;BME280;37512;52.408;13.356;2023-06-26T15:01:50;100641.88;;;21.52;100.00
45763;BME280;37512;52.408;13.356;2023-06-26T15:05:52;100648.47;;;21.29;100.00
45763;BME280;37512;52.408;13.356;2023-06-26T15:09:54;100668.72;;;21.44;100.00
45763;BME280;37512;52.408;13.356;2023-06-26T15:13:55;100698.13;;;21.27;100.00
45763;BME280;37512;52.408;13.356;2023-06-26T15:17:57;100693.53;;;21.53;100.00
45763;BME280;37512;52.408;13.356;2023-06-26T15:22:00;100691.41;;;21.74;100.00
45763;BME280;37512;52.408;13.356;2023-06-26T15:26:01;100701.38;;;21.09;100.00
45763;BME280;37512;52.408;13.356;2023-06-26T15:30:03;100709.47;;;21.60;100.00
45763;BME280;37512;52.408;13.356;2023-06-26T15:34:07;100699.78;;;21.61;100.00
45763;BME280;37512;52.408;13.356;2023-06-26T15:38:08;100722.00;;;21.42;100.00
45763;BME280;37512;52.408;13.356;2023-06-26T15:42:10;100732.34;;;21.13;100.00
45763;BME280;37512;52.408;13.356;2023-06-26T15:46:11;100722.03;;;21.22;100.00
45763;BME280;37512;52.408;13.356;2023-06-26T15:50:13;100738.00;;;21.13;100.00
45763;BME280;37512;52.408;13.356;2023-06-26T15:54:14;100731.66;;;21.25;100.00
45763;BME280;37512;52.408;13.356;2023-06-26T15:58:16;100725.09;;;21.12;100.00
45763;BME280;37512;52.408;13.356;2023-06-26T16:02:17;100726.34;;;21.10;100.00
45763;BME280;37512;52.408;13.356;2023-06-26T16:06:19;100735.44;;;21.35;100.00
45763;BME280;37512;52.408;13.356;2023-06-26T16:10:20;100724.97;;;21.35;100.00
45763;BME280;37512;52.408;13.356;2023-06-26T16:14:22;100729.19;;;21.27;100.00
45763;BME280;37512;52.408;13.356;2023-06-26T16:18:24;100718.22;;;22.27;100.00
45763;BME280;37512;52.408;13.356;2023-06-26T16:22:26;100711.44;;;22.67;100.00
45763;BME280;37512;52.408;13.356;2023-06-26T16:26:30;100708.22;;;22.39;100.00
45763;BME280;37512;52.408;13.356;2023-06-26T16:30:32;100709.19;;;22.32;100.00
45763;BME280;37512;52.408;13.356;2023-06-26T16:34:33;100711.56;;;21.88;100.00
45763;BME280;37512;52.408;13.356;2023-06-26T16:38:37;100713.41;;;21.95;100.00
45763;BME280;37512;52.408;13.356;2023-06-26T16:42:42;100703.19;;;21.85;100.00
45763;BME280;37512;52.408;13.356;2023-06-26T16:46:44;100697.50;;;21.56;100.00
45763;BME280;37512;52.408;13.356;2023-06-26T16:50:46;100715.56;;;21.75;100.00
45763;BME280;37512;52.408;13.356;2023-06-26T16:54:48;100715.28;;;21.69;100.00
45763;BME280;37512;52.408;13.356;2023-06-26T16:58:49;100724.66;;;21.66;100.00
45763;BME280;37512;52.408;13.356;2023-06-26T17:02:51;100729.50;;;21.65;100.00
45763;BME280;37512;52.408;13.356;2023-06-26T17:06:52;100722.25;;;21.64;100.00
45763;BME280;37512;52.408;13.356;2023-06-26T17:10:54;100711.84;;;21.94;100.00
45763;BME280;37512;52.408;13.356;2023-06-26T17:14:56;100727.13;;;21.97;100.00
45763;BME280;37512;52.408;13.356;2023-06-26T17:18:57;100750.47;;;22.13;100.00
45763;BME280;37512;52.408;13.356;2023-06-26T17:22:59;100747.28;;;22.57;100.00
45763;BME280;37512;52.408;13.356;2023-06-26T17:27:08;100747.09;;;23.06;100.00
45763;BME280;37512;52.408;13.356;2023-06-26T17:31:10;100756.94;;;23.02;100.00
45763;BME280;37512;52.408;13.356;2023-06-26T17:35:12;100760.59;;;23.15;100.00
45763;BME280;37512;52.408;13.356;2023-06-26T17:39:14;100759.22;;;23.32;100.00
45763;BME280;37512;52.408;13.356;2023-06-26T17:43:16;100765.69;;;23.33;100.00
45763;BME280;37512;52.408;13.356;2023-06-26T17:47:21;100767.03;;;22.73;100.00
45763;BME280;37512;52.408;13.356;2023-06-26T17:51:23;100769.31;;;22.79;100.00
45763;BME280;37512;52.408;13.356;2023-06-26T17:55:25;100785.97;;;22.76;100.00
45763;BME280;37512;52.408;13.356;2023-06-26T17:59:29;100782.13;;;22.54;100.00
45763;BME280;37512;52.408;13.356;2023-06-26T18:03:31;100781.47;;;22.33;100.00
45763;BME280;37512;52.408;13.356;2023-06-26T18:07:33;100799.50;;;21.90;100.00
45763;BME280;37512;52.408;13.356;2023-06-26T18:11:35;100790.91;;;22.43;100.00
45763;BME280;37512;52.408;13.356;2023-06-26T18:15:37;100795.47;;;22.08;100.00
45763;BME280;37512;52.408;13.356;2023-06-26T18:19:38;100806.41;;;22.22;100.00
45763;BME280;37512;52.408;13.356;2023-06-26T18:23:40;100804.97;;;21.98;100.00
45763;BME280;37512;52.408;13.356;2023-06-26T18:27:42;100795.63;;;22.01;100.00
45763;BME280;37512;52.408;13.356;2023-06-26T18:31:43;100797.66;;;21.67;100.00
45763;BME280;37512;52.408;13.356;2023-06-26T18:35:45;100808.16;;;21.67;100.00
45763;BME280;37512;52.408;13.356;2023-06-26T18:39:47;100806.31;;;21.60;100.00
45763;BME280;37512;52.408;13.356;2023-06-26T18:43:48;100813.25;;;21.56;100.00
45763;BME280;37512;52.408;13.356;2023-06-26T18:47:50;100810.63;;;21.65;100.00
45763;BME280;37512;52.408;13.356;2023-06-26T18:51:55;100810.28;;;21.79;100.00
45763;BME280;37512;52.408;13.356;2023-06-26T18:55:56;100818.94;;;21.36;100.00
45763;BME280;37512;52.408;13.356;2023-06-26T18:59:58;100818.81;;;21.59;100.00
45763;BME280;37512;52.408;13.356;2023-06-26T19:04:02;100815.56;;;21.61;100.00
45763;BME280;37512;52.408;13.356;2023-06-26T19:08:04;100821.81;;;21.32;100.00
45763;BME280;37512;52.408;13.356;2023-06-26T19:12:07;100830.81;;;21.27;100.00
45763;BME280;37512;52.408;13.356;2023-06-26T19:16:08;100842.38;;;20.73;100.00
45763;BME280;37512;52.408;13.356;2023-06-26T19:20:11;100841.81;;;21.01;100.00
45763;BME280;37512;52.408;13.356;2023-06-26T19:24:13;100844.72;;;20.78;100.00
45763;BME280;37512;52.408;13.356;2023-06-26T19:28:14;100852.69;;;20.83;100.00
45763;BME280;37512;52.408;13.356;2023-06-26T19:32:16;100861.69;;;20.74;100.00
45763;BME280;37512;52.408;13.356;2023-06-26T19:36:18;100852.44;;;20.74;100.00
45763;BME280;37512;52.408;13.356;2023-06-26T19:40:22;100868.47;;;20.57;100.00
45763;BME280;37512;52.408;13.356;2023-06-26T19:44:23;100869.34;;;20.50;100.00
45763;BME280;37512;52.408;13.356;2023-06-26T19:48:29;100869.44;;;20.70;100.00
45763;BME280;37512;52.408;13.356;2023-06-26T19:52:31;100865.81;;;20.70;100.00
45763;BME280;37512;52.408;13.356;2023-06-26T19:56:32;100862.13;;;20.49;100.00
45763;BME280;37512;52.408;13.356;2023-06-26T20:00:34;100862.50;;;20.51;100.00
45763;BME280;37512;52.408;13.356;2023-06-26T20:04:38;100870.88;;;20.08;100.00
45763;BME280;37512;52.408;13.356;2023-06-26T20:08:41;100883.38;;;20.06;100.00
45763;BME280;37512;52.408;13.356;2023-06-26T20:12:42;100875.66;;;20.11;100.00
45763;BME280;37512;52.408;13.356;2023-06-26T20:16:44;100882.81;;;19.92;100.00
45763;BME280;37512;52.408;13.356;2023-06-26T20:20:45;100877.53;;;19.94;100.00
45763;BME280;37512;52.408;13.356;2023-06-26T20:24:47;100880.88;;;20.12;100.00
45763;BME280;37512;52.408;13.356;2023-06-26T20:28:49;100878.63;;;20.00;96.04
45763;BME280;37512;52.408;13.356;2023-06-26T20:32:50;100882.84;;;19.88;100.00
45763;BME280;37512;52.408;13.356;2023-06-26T20:36:52;100869.47;;;20.19;99.47
45763;BME280;37512;52.408;13.356;2023-06-26T20:40:54;100886.19;;;19.79;100.00
45763;BME280;37512;52.408;13.356;2023-06-26T20:44:56;100892.63;;;19.80;97.67
45763;BME280;37512;52.408;13.356;2023-06-26T20:48:59;100893.84;;;19.79;100.00
45763;BME280;37512;52.408;13.356;2023-06-26T20:53:01;100887.72;;;19.84;100.00
45763;BME280;37512;52.408;13.356;2023-06-26T20:57:04;100896.06;;;19.64;99.51